Time;durP1;ratioP1;P1;durP2;ratioP2;P2;SDS_P1;SDS_P2;PMS_P1;PMS_P2;Temp;Humidity;BMP_temperature;BMP_pressure;BME280_temperature;BME280_humidity;BME280_pressure;Samples;Min_cycle;Max_cycle;Signal;HPM_P1;HPM_P2
2023/11/29 00:00:00;;;;;;;5.50;4.68;;;;;;;;;;6295037;22;20176;-78
2023/11/29 00:02:28;;;;;;;4.25;3.70;;;;;;;;;;6294792;22;20580;-78
2023/11/29 00:04:57;;;;;;;5.55;4.63;;;;;;;;;;6294434;22;20200;-79
2023/11/29 00:07:26;;;;;;;6.13;4.68;;;;;;;;;;6294632;22;20172;-79
2023/11/29 00:09:54;;;;;;;4.78;4.25;;;;;;;;;;6294494;22;20176;-78
2023/11/29 00:12:22;;;;;;;4.25;3.85;;;;;;;;;;6294239;22;20529;-79
2023/11/29 00:14:49;;;;;;;5.50;4.57;;;;;;;;;;6294767;22;20177;-78
2023/11/29 00:17:17;;;;;;;5.43;4.10;;;;;;;;;;6292720;22;20176;-78
2023/11/29 00:19:44;;;;;;;8.40;5.30;;;;;;;;;;6293944;22;20177;-79
2023/11/29 00:22:12;;;;;;;5.75;5.05;;;;;;;;;;6294991;22;20576;-79
2023/11/29 00:24:46;;;;;;;9.57;6.50;;;;;;;;;;6294431;22;20219;-79
2023/11/29 00:27:14;;;;;;;6.70;6.03;;;;;;;;;;6291778;22;20196;-78
2023/11/29 00:29:41;;;;;;;4.82;4.07;;;;;;;;;;6293104;22;20504;-79
2023/11/29 00:32:09;;;;;;;4.93;4.53;;;;;;;;;;6292861;22;20176;-78
2023/11/29 00:34:36;;;;;;;5.85;4.25;;;;;;;;;;6293578;22;20200;-78
2023/11/29 00:37:05;;;;;;;4.10;3.67;;;;;;;;;;6288307;22;20208;-80
2023/11/29 00:39:32;;;;;;;6.45;5.65;;;;;;;;;;6280566;22;20204;-79
2023/11/29 00:42:01;;;;;;;6.57;5.85;;;;;;;;;;6280724;22;20214;-80
2023/11/29 00:44:29;;;;;;;9.73;6.00;;;;;;;;;;6281129;22;20173;-79
2023/11/29 00:46:56;;;;;;;7.18;5.53;;;;;;;;;;6283289;22;20709;-80
2023/11/29 00:49:24;;;;;;;6.75;5.75;;;;;;;;;;6281582;22;20271;-80
2023/11/29 00:51:51;;;;;;;6.07;5.13;;;;;;;;;;6281644;22;20554;-77
2023/11/29 00:54:19;;;;;;;7.88;5.97;;;;;;;;;;6286167;22;20207;-79
2023/11/29 00:56:46;;;;;;;6.55;5.88;;;;;;;;;;6292558;22;20204;-79
2023/11/29 00:59:15;;;;;;;6.72;6.03;;;;;;;;;;6295016;22;20202;-79
2023/11/29 01:01:42;;;;;;;6.35;5.60;;;;;;;;;;6296052;22;20215;-79
2023/11/29 01:04:10;;;;;;;8.32;6.75;;;;;;;;;;6295121;22;20648;-80
2023/11/29 01:06:38;;;;;;;8.00;6.50;;;;;;;;;;6295144;22;20483;-79
2023/11/29 01:09:06;;;;;;;6.43;5.43;;;;;;;;;;6298050;22;20275;-80
2023/11/29 01:11:34;;;;;;;5.22;4.72;;;;;;;;;;6296419;22;20179;-79
2023/11/29 01:14:01;;;;;;;6.60;5.50;;;;;;;;;;6295503;22;20176;-80
2023/11/29 01:16:31;;;;;;;6.30;5.30;;;;;;;;;;6296252;22;20176;-80
2023/11/29 01:18:59;;;;;;;6.53;5.22;;;;;;;;;;6295951;22;20194;-79
2023/11/29 01:21:28;;;;;;;6.60;5.47;;;;;;;;;;6297318;22;20226;-80
2023/11/29 01:23:55;;;;;;;6.65;5.72;;;;;;;;;;6295930;22;20180;-79
2023/11/29 01:26:23;;;;;;;7.85;7.03;;;;;;;;;;6296643;22;20195;-79
2023/11/29 01:28:51;;;;;;;7.15;6.32;;;;;;;;;;6296250;22;20203;-80
2023/11/29 01:31:18;;;;;;;6.28;5.63;;;;;;;;;;6298563;22;20199;-80
2023/11/29 01:33:47;;;;;;;6.03;5.40;;;;;;;;;;6296051;22;20180;-80
2023/11/29 01:36:15;;;;;;;6.68;5.55;;;;;;;;;;6296893;22;20196;-80
2023/11/29 01:38:42;;;;;;;6.82;5.38;;;;;;;;;;6294440;22;20528;-79
2023/11/29 01:41:10;;;;;;;8.48;6.22;;;;;;;;;;6296947;22;20180;-80
2023/11/29 01:43:38;;;;;;;7.15;5.85;;;;;;;;;;6296485;22;20226;-79
2023/11/29 01:46:06;;;;;;;6.90;5.90;;;;;;;;;;6297023;22;20191;-80
2023/11/29 01:48:34;;;;;;;7.28;5.68;;;;;;;;;;6295888;22;20200;-80
2023/11/29 01:51:03;;;;;;;9.82;7.03;;;;;;;;;;6294702;22;20176;-80
2023/11/29 01:53:31;;;;;;;6.18;5.22;;;;;;;;;;6296344;22;20167;-79
2023/11/29 01:55:59;;;;;;;6.15;5.13;;;;;;;;;;6296056;22;20177;-81
2023/11/29 01:58:28;;;;;;;6.90;5.40;;;;;;;;;;6295960;22;20197;-79
2023/11/29 02:00:57;;;;;;;5.82;4.75;;;;;;;;;;6296861;22;20203;-80
2023/11/29 02:03:24;;;;;;;7.72;6.93;;;;;;;;;;6297886;22;20192;-79
2023/11/29 02:05:52;;;;;;;7.63;5.43;;;;;;;;;;6297063;22;20188;-81
2023/11/29 02:08:21;;;;;;;7.50;6.07;;;;;;;;;;6295939;22;20203;-80
2023/11/29 02:10:50;;;;;;;6.30;5.45;;;;;;;;;;6296372;22;20176;-79
2023/11/29 02:13:18;;;;;;;6.60;5.30;;;;;;;;;;6297193;22;20219;-80
2023/11/29 02:15:45;;;;;;;5.68;5.13;;;;;;;;;;6296161;22;20183;-80
2023/11/29 02:18:13;;;;;;;6.18;5.38;;;;;;;;;;6296335;22;20203;-79
2023/11/29 02:20:40;;;;;;;6.30;5.70;;;;;;;;;;6296156;22;20176;-80
2023/11/29 02:23:17;;;;;;;8.57;6.70;;;;;;;;;;6296689;22;20207;-80
2023/11/29 02:25:46;;;;;;;7.90;7.10;;;;;;;;;;6296721;22;20164;-80
2023/11/29 02:28:14;;;;;;;5.70;5.20;;;;;;;;;;6297336;22;20204;-80
2023/11/29 02:30:41;;;;;;;6.68;5.50;;;;;;;;;;6294420;22;20207;-80
2023/11/29 02:33:08;;;;;;;5.55;5.05;;;;;;;;;;6296058;22;20199;-80
2023/11/29 02:35:36;;;;;;;6.75;4.97;;;;;;;;;;6296487;22;20497;-80
2023/11/29 02:38:03;;;;;;;5.43;4.88;;;;;;;;;;6295858;22;20200;-80
2023/11/29 02:40:31;;;;;;;6.03;5.45;;;;;;;;;;6295696;22;20182;-80
2023/11/29 02:43:00;;;;;;;6.93;6.00;;;;;;;;;;6295658;22;20535;-79
2023/11/29 02:45:27;;;;;;;6.63;5.97;;;;;;;;;;6295987;22;20176;-79
2023/11/29 02:47:55;;;;;;;6.35;5.75;;;;;;;;;;6295751;22;20207;-80
2023/11/29 02:50:22;;;;;;;8.07;5.90;;;;;;;;;;6295404;22;20183;-80
2023/11/29 02:52:50;;;;;;;5.38;4.85;;;;;;;;;;6295630;22;20172;-80
2023/11/29 02:55:18;;;;;;;5.78;5.10;;;;;;;;;;6296157;22;20195;-79
2023/11/29 02:57:45;;;;;;;6.15;5.15;;;;;;;;;;6296797;22;20196;-79
2023/11/29 03:00:15;;;;;;;5.60;5.03;;;;;;;;;;6293861;22;20204;-79
2023/11/29 03:02:43;;;;;;;6.40;5.63;;;;;;;;;;6295730;22;20598;-80
2023/11/29 03:05:10;;;;;;;6.82;6.13;;;;;;;;;;6296959;22;20172;-81
2023/11/29 03:07:37;;;;;;;7.68;5.50;;;;;;;;;;6296757;22;20208;-81
2023/11/29 03:10:06;;;;;;;6.25;5.43;;;;;;;;;;6295146;22;20187;-80
2023/11/29 03:12:33;;;;;;;6.00;5.47;;;;;;;;;;6296085;22;20179;-80
2023/11/29 03:15:01;;;;;;;6.13;5.53;;;;;;;;;;6295132;22;20176;-79
2023/11/29 03:17:30;;;;;;;6.35;5.68;;;;;;;;;;6295571;22;20176;-79
2023/11/29 03:19:57;;;;;;;6.15;5.05;;;;;;;;;;6294633;22;20180;-80
2023/11/29 03:22:24;;;;;;;6.82;4.95;;;;;;;;;;6295210;22;20231;-80
2023/11/29 03:24:52;;;;;;;6.97;6.13;;;;;;;;;;6295025;22;20176;-78
2023/11/29 03:27:20;;;;;;;5.78;4.93;;;;;;;;;;6296428;22;20215;-80
2023/11/29 03:29:47;;;;;;;5.63;4.72;;;;;;;;;;6295664;22;20176;-79
2023/11/29 03:32:16;;;;;;;7.43;6.07;;;;;;;;;;6295925;22;20176;-80
2023/11/29 03:34:45;;;;;;;6.55;5.72;;;;;;;;;;6297039;22;20183;-80
2023/11/29 03:37:12;;;;;;;7.18;4.70;;;;;;;;;;6296320;22;20176;-80
2023/11/29 03:39:39;;;;;;;5.05;4.55;;;;;;;;;;6295539;22;20231;-80
2023/11/29 03:42:07;;;;;;;7.00;5.68;;;;;;;;;;6293563;22;20183;-80
2023/11/29 03:44:36;;;;;;;5.28;4.78;;;;;;;;;;6296227;22;20196;-80
2023/11/29 03:47:04;;;;;;;6.95;5.55;;;;;;;;;;6296557;22;20180;-81
2023/11/29 03:49:31;;;;;;;5.20;4.70;;;;;;;;;;6296464;22;20592;-80
2023/11/29 03:52:00;;;;;;;6.57;5.90;;;;;;;;;;6295909;22;20184;-79
2023/11/29 03:54:27;;;;;;;7.22;5.97;;;;;;;;;;6295647;22;20183;-80
2023/11/29 03:56:55;;;;;;;5.22;4.70;;;;;;;;;;6296194;22;20180;-80
2023/11/29 03:59:22;;;;;;;7.00;6.20;;;;;;;;;;6295783;22;20515;-81
2023/11/29 04:01:50;;;;;;;7.93;5.28;;;;;;;;;;6294640;22;20176;-80
2023/11/29 04:04:17;;;;;;;6.75;5.47;;;;;;;;;;6296335;22;20255;-81
2023/11/29 04:06:44;;;;;;;5.28;4.65;;;;;;;;;;6295155;22;20183;-80
2023/11/29 04:09:13;;;;;;;5.82;5.22;;;;;;;;;;6295417;22;20203;-81
2023/11/29 04:11:41;;;;;;;6.28;5.68;;;;;;;;;;6295842;22;20176;-80
2023/11/29 04:14:08;;;;;;;5.47;4.97;;;;;;;;;;6296505;22;20640;-81
2023/11/29 04:16:36;;;;;;;5.30;4.50;;;;;;;;;;6295048;22;20215;-79
2023/11/29 04:19:03;;;;;;;7.40;5.85;;;;;;;;;;6295998;22;20203;-79
2023/11/29 04:21:33;;;;;;;6.78;5.63;;;;;;;;;;6295416;22;20172;-81
2023/11/29 04:24:01;;;;;;;5.45;4.95;;;;;;;;;;6294854;22;20200;-80
2023/11/29 04:26:32;;;;;;;5.00;4.55;;;;;;;;;;6295991;22;20502;-80
2023/11/29 04:29:00;;;;;;;6.20;5.45;;;;;;;;;;6296093;22;20207;-80
2023/11/29 04:31:29;;;;;;;5.38;4.63;;;;;;;;;;6295935;22;20176;-79
2023/11/29 04:33:56;;;;;;;6.18;4.95;;;;;;;;;;6296472;22;20167;-80
2023/11/29 04:36:24;;;;;;;5.13;4.55;;;;;;;;;;6296357;22;20177;-79
2023/11/29 04:38:53;;;;;;;6.78;5.80;;;;;;;;;;6296062;22;20219;-79
2023/11/29 04:41:20;;;;;;;5.07;4.28;;;;;;;;;;6298530;22;20173;-80
2023/11/29 04:43:50;;;;;;;6.63;5.25;;;;;;;;;;6297446;22;20223;-80
2023/11/29 04:46:17;;;;;;;8.10;6.70;;;;;;;;;;6297697;22;20179;-81
2023/11/29 04:48:46;;;;;;;4.80;4.30;;;;;;;;;;6297713;22;20203;-80
2023/11/29 04:51:13;;;;;;;6.25;5.20;;;;;;;;;;6295968;22;20200;-80
2023/11/29 04:53:41;;;;;;;6.63;5.32;;;;;;;;;;6296455;22;20172;-80
2023/11/29 04:56:09;;;;;;;6.80;5.45;;;;;;;;;;6297278;22;20180;-80
2023/11/29 04:58:39;;;;;;;5.20;4.70;;;;;;;;;;6297527;22;20196;-79
2023/11/29 05:01:10;;;;;;;5.60;5.07;;;;;;;;;;6298467;22;20202;-80
2023/11/29 05:03:38;;;;;;;6.13;5.47;;;;;;;;;;6297171;22;20181;-80
2023/11/29 05:06:06;;;;;;;4.50;4.10;;;;;;;;;;6297933;22;20172;-79
2023/11/29 05:08:34;;;;;;;5.40;4.40;;;;;;;;;;6297489;22;20231;-79
2023/11/29 05:11:04;;;;;;;6.75;6.03;;;;;;;;;;6297368;22;20176;-80
2023/11/29 05:13:31;;;;;;;7.63;6.30;;;;;;;;;;6297292;22;20203;-81
2023/11/29 05:15:58;;;;;;;6.07;5.13;;;;;;;;;;6297286;22;20172;-79
2023/11/29 05:18:27;;;;;;;5.80;5.20;;;;;;;;;;6297763;22;20204;-78
2023/11/29 05:20:56;;;;;;;6.30;5.70;;;;;;;;;;6297196;22;20156;-81
2023/11/29 05:23:24;;;;;;;6.75;5.20;;;;;;;;;;6297178;22;20271;-80
2023/11/29 05:25:52;;;;;;;5.30;4.80;;;;;;;;;;6297475;22;20224;-79
2023/11/29 05:28:25;;;;;;;6.55;5.85;;;;;;;;;;6296951;22;20204;-81
2023/11/29 05:30:52;;;;;;;5.40;4.35;;;;;;;;;;6296947;22;20274;-80
2023/11/29 05:33:22;;;;;;;4.75;4.35;;;;;;;;;;6295992;22;20176;-80
2023/11/29 05:35:53;;;;;;;5.38;4.85;;;;;;;;;;6297531;22;20207;-78
2023/11/29 05:38:20;;;;;;;5.45;4.90;;;;;;;;;;6297905;22;20200;-79
2023/11/29 05:40:47;;;;;;;5.13;4.63;;;;;;;;;;6296618;22;20180;-81
2023/11/29 05:43:15;;;;;;;5.80;5.30;;;;;;;;;;6296728;22;20202;-81
2023/11/29 05:45:42;;;;;;;4.88;4.40;;;;;;;;;;6297384;22;20204;-80
2023/11/29 05:48:10;;;;;;;7.20;6.05;;;;;;;;;;6296753;22;20231;-81
2023/11/29 05:50:39;;;;;;;6.70;6.00;;;;;;;;;;6295480;22;20180;-79
2023/11/29 05:53:08;;;;;;;8.07;7.28;;;;;;;;;;6296732;22;20176;-80
2023/11/29 05:55:35;;;;;;;8.75;6.95;;;;;;;;;;6295897;22;20561;-80
2023/11/29 05:58:04;;;;;;;6.25;5.65;;;;;;;;;;6296509;22;20203;-80
2023/11/29 06:00:32;;;;;;;6.13;5.10;;;;;;;;;;6297474;22;20182;-80
2023/11/29 06:02:59;;;;;;;6.45;5.80;;;;;;;;;;6298202;22;20176;-81
2023/11/29 06:05:27;;;;;;;7.35;6.65;;;;;;;;;;6296937;22;20196;-77
2023/11/29 06:07:54;;;;;;;7.80;5.93;;;;;;;;;;6297094;22;20193;-79
2023/11/29 06:10:23;;;;;;;5.15;4.18;;;;;;;;;;6295938;22;20177;-80
2023/11/29 06:12:50;;;;;;;6.68;5.57;;;;;;;;;;6296600;22;20173;-79
2023/11/29 06:15:18;;;;;;;6.90;6.13;;;;;;;;;;6299022;22;20187;-79
2023/11/29 06:17:46;;;;;;;6.05;5.40;;;;;;;;;;6300747;22;20228;-79
2023/11/29 06:20:15;;;;;;;6.82;6.13;;;;;;;;;;6300419;22;20165;-80
2023/11/29 06:22:43;;;;;;;6.13;5.53;;;;;;;;;;6300325;22;20181;-78
2023/11/29 06:25:10;;;;;;;7.03;5.57;;;;;;;;;;6294355;22;20595;-81
2023/11/29 06:27:39;;;;;;;8.30;5.85;;;;;;;;;;6296351;22;20582;-80
2023/11/29 06:30:09;;;;;;;6.25;5.53;;;;;;;;;;6295902;22;20629;-79
2023/11/29 06:32:36;;;;;;;6.70;5.97;;;;;;;;;;6296635;22;20176;-80
2023/11/29 06:35:04;;;;;;;6.80;5.35;;;;;;;;;;6295361;22;20186;-79
2023/11/29 06:37:33;;;;;;;6.57;5.28;;;;;;;;;;6294191;22;20183;-80
2023/11/29 06:40:02;;;;;;;5.93;5.32;;;;;;;;;;6291303;22;20212;-80
2023/11/29 06:42:30;;;;;;;5.72;5.15;;;;;;;;;;6292562;22;20188;-80
2023/11/29 06:44:59;;;;;;;6.43;5.65;;;;;;;;;;6292062;22;20227;-80
2023/11/29 06:47:26;;;;;;;6.25;5.70;;;;;;;;;;6293085;22;20160;-78
2023/11/29 06:49:53;;;;;;;5.20;4.70;;;;;;;;;;6295995;22;20177;-79
2023/11/29 06:52:21;;;;;;;6.40;5.75;;;;;;;;;;6294710;22;20176;-80
2023/11/29 06:54:49;;;;;;;6.40;5.45;;;;;;;;;;6295132;22;20210;-80
2023/11/29 06:57:17;;;;;;;6.30;5.47;;;;;;;;;;6293906;22;20179;-78
2023/11/29 06:59:46;;;;;;;6.35;5.13;;;;;;;;;;6296482;22;20196;-80
2023/11/29 07:02:15;;;;;;;5.85;5.22;;;;;;;;;;6295166;22;20165;-80
2023/11/29 07:04:44;;;;;;;6.70;5.18;;;;;;;;;;6293587;22;20192;-81
2023/11/29 07:07:11;;;;;;;6.53;4.68;;;;;;;;;;6297026;22;20179;-81
2023/11/29 07:09:39;;;;;;;6.68;5.97;;;;;;;;;;6295276;22;20210;-80
2023/11/29 07:12:08;;;;;;;10.07;5.65;;;;;;;;;;6292514;22;20202;-80
2023/11/29 07:14:35;;;;;;;8.25;4.50;;;;;;;;;;6295303;22;20172;-80
2023/11/29 07:17:04;;;;;;;6.07;4.50;;;;;;;;;;6294934;22;20187;-80
2023/11/29 07:19:34;;;;;;;7.60;6.22;;;;;;;;;;6296838;22;20184;-79
2023/11/29 07:22:02;;;;;;;5.78;5.18;;;;;;;;;;6297027;22;20167;-81
2023/11/29 07:24:29;;;;;;;5.85;5.28;;;;;;;;;;6294519;22;20204;-79
2023/11/29 07:26:57;;;;;;;5.97;5.38;;;;;;;;;;6297002;22;20176;-79
2023/11/29 07:29:23;;;;;;;5.07;4.57;;;;;;;;;;6294867;22;20191;-80
2023/11/29 07:31:53;;;;;;;7.05;5.55;;;;;;;;;;6294850;22;20519;-80
2023/11/29 07:34:21;;;;;;;6.85;6.13;;;;;;;;;;6295412;22;20160;-80
2023/11/29 07:36:51;;;;;;;6.13;5.50;;;;;;;;;;6294445;22;20644;-80
2023/11/29 07:39:19;;;;;;;7.75;6.10;;;;;;;;;;6294510;22;20218;-80
2023/11/29 07:41:47;;;;;;;6.45;5.72;;;;;;;;;;6295132;22;20498;-81
2023/11/29 07:44:14;;;;;;;6.45;5.43;;;;;;;;;;6294463;22;20172;-80
2023/11/29 07:46:42;;;;;;;7.88;5.95;;;;;;;;;;6296472;22;20351;-80
2023/11/29 07:49:12;;;;;;;6.32;5.72;;;;;;;;;;6295162;22;20211;-80
2023/11/29 07:51:40;;;;;;;7.13;5.65;;;;;;;;;;6294591;22;20224;-80
2023/11/29 07:54:08;;;;;;;6.93;6.13;;;;;;;;;;6295195;22;20176;-78
2023/11/29 07:56:36;;;;;;;5.85;5.32;;;;;;;;;;6295710;22;20179;-79
2023/11/29 07:59:04;;;;;;;5.30;4.72;;;;;;;;;;6293420;22;20508;-80
2023/11/29 08:01:31;;;;;;;8.93;5.72;;;;;;;;;;6294567;22;20167;-80
2023/11/29 08:03:58;;;;;;;5.65;5.05;;;;;;;;;;6295370;22;20177;-79
2023/11/29 08:06:28;;;;;;;5.85;5.20;;;;;;;;;;6294284;22;20759;-80
2023/11/29 08:08:55;;;;;;;6.00;5.38;;;;;;;;;;6295151;22;20258;-79
2023/11/29 08:11:24;;;;;;;5.15;4.65;;;;;;;;;;6292295;22;20196;-80
2023/11/29 08:13:52;;;;;;;6.30;5.32;;;;;;;;;;6295737;22;20199;-81
2023/11/29 08:16:19;;;;;;;5.60;4.47;;;;;;;;;;6297056;22;20172;-80
2023/11/29 08:18:47;;;;;;;6.65;6.00;;;;;;;;;;6296174;22;20200;-79
2023/11/29 08:21:15;;;;;;;6.00;5.30;;;;;;;;;;6295406;22;20210;-80
2023/11/29 08:23:44;;;;;;;6.07;5.03;;;;;;;;;;6298503;22;20536;-80
2023/11/29 08:26:11;;;;;;;6.07;5.50;;;;;;;;;;6296411;22;20280;-80
2023/11/29 08:28:40;;;;;;;6.22;5.18;;;;;;;;;;6295269;22;20223;-80
2023/11/29 08:31:08;;;;;;;5.63;5.13;;;;;;;;;;6294841;22;20648;-80
2023/11/29 08:33:36;;;;;;;6.35;5.72;;;;;;;;;;6295828;22;20176;-81
2023/11/29 08:36:04;;;;;;;7.00;6.30;;;;;;;;;;6295636;22;20176;-80
2023/11/29 08:38:32;;;;;;;5.88;5.20;;;;;;;;;;6297228;22;20189;-81
2023/11/29 08:41:00;;;;;;;6.10;4.80;;;;;;;;;;6295136;22;20184;-81
2023/11/29 08:43:27;;;;;;;5.45;4.93;;;;;;;;;;6296641;22;20208;-80
2023/11/29 08:45:56;;;;;;;6.68;5.57;;;;;;;;;;6295015;22;20203;-80
2023/11/29 08:48:24;;;;;;;7.75;5.57;;;;;;;;;;6296294;22;20196;-79
2023/11/29 08:50:52;;;;;;;6.88;5.60;;;;;;;;;;6296621;22;20176;-80
2023/11/29 08:53:19;;;;;;;8.07;6.65;;;;;;;;;;6295186;22;20164;-81
2023/11/29 08:55:47;;;;;;;7.07;6.15;;;;;;;;;;6297199;22;20240;-80
2023/11/29 08:58:14;;;;;;;5.60;5.10;;;;;;;;;;6295071;22;20203;-79
2023/11/29 09:00:42;;;;;;;6.68;5.95;;;;;;;;;;6297268;22;20179;-80
2023/11/29 09:03:11;;;;;;;8.68;7.18;;;;;;;;;;6295184;22;20186;-80
2023/11/29 09:05:40;;;;;;;8.25;6.22;;;;;;;;;;6295568;22;20202;-81
2023/11/29 09:08:07;;;;;;;7.03;5.72;;;;;;;;;;6296128;22;20314;-80
2023/11/29 09:10:37;;;;;;;5.88;5.28;;;;;;;;;;6295185;22;20200;-81
2023/11/29 09:13:06;;;;;;;7.82;6.95;;;;;;;;;;6296586;22;20228;-79
2023/11/29 09:15:34;;;;;;;6.30;5.70;;;;;;;;;;6295625;22;20599;-80
2023/11/29 09:18:01;;;;;;;5.97;5.38;;;;;;;;;;6296562;22;20203;-81
2023/11/29 09:20:30;;;;;;;7.30;6.15;;;;;;;;;;6295024;22;20633;-79
2023/11/29 09:22:58;;;;;;;6.03;5.32;;;;;;;;;;6295301;22;20254;-80
2023/11/29 09:25:25;;;;;;;5.38;4.88;;;;;;;;;;6294533;22;20180;-80
2023/11/29 09:27:53;;;;;;;5.50;4.85;;;;;;;;;;6295506;22;20218;-79
2023/11/29 09:30:21;;;;;;;6.47;5.85;;;;;;;;;;6294832;22;20199;-79
2023/11/29 09:32:48;;;;;;;6.32;5.72;;;;;;;;;;6296588;22;20176;-81
2023/11/29 09:35:16;;;;;;;8.13;5.85;;;;;;;;;;6294316;22;20176;-80
2023/11/29 09:37:46;;;;;;;5.95;5.35;;;;;;;;;;6295765;22;20192;-80
2023/11/29 09:40:16;;;;;;;5.53;4.95;;;;;;;;;;6295326;22;20168;-81
2023/11/29 09:42:43;;;;;;;7.75;6.32;;;;;;;;;;6295532;22;20200;-80
2023/11/29 09:45:18;;;;;;;6.78;6.03;;;;;;;;;;6295014;22;20180;-81
2023/11/29 09:47:46;;;;;;;7.85;6.38;;;;;;;;;;6295595;22;20263;-79
2023/11/29 09:50:15;;;;;;;6.65;6.10;;;;;;;;;;6296925;22;20177;-80
2023/11/29 09:52:44;;;;;;;6.38;5.78;;;;;;;;;;6294938;22;20214;-79
2023/11/29 09:55:11;;;;;;;5.68;4.82;;;;;;;;;;6295843;22;20176;-80
2023/11/29 09:57:39;;;;;;;6.40;5.80;;;;;;;;;;6296137;22;20204;-79
2023/11/29 10:00:10;;;;;;;7.18;6.28;;;;;;;;;;6295673;22;20176;-79
2023/11/29 10:02:39;;;;;;;7.50;5.28;;;;;;;;;;6295213;22;20582;-80
2023/11/29 10:05:07;;;;;;;7.20;6.07;;;;;;;;;;6295488;22;20176;-79
2023/11/29 10:07:36;;;;;;;6.50;5.85;;;;;;;;;;6296291;22;20196;-80
2023/11/29 10:10:06;;;;;;;7.90;5.68;;;;;;;;;;6295900;22;20526;-80
2023/11/29 10:12:37;;;;;;;3.85;3.45;;;;;;;;;;6294392;22;20160;-80
2023/11/29 10:15:06;;;;;;;5.90;4.55;;;;;;;;;;6297360;22;20168;-80
2023/11/29 10:17:34;;;;;;;7.45;5.40;;;;;;;;;;6294722;22;20183;-80
2023/11/29 10:20:02;;;;;;;5.43;4.93;;;;;;;;;;6293817;22;20546;-81
2023/11/29 10:22:31;;;;;;;5.82;5.32;;;;;;;;;;6296596;22;20196;-81
2023/11/29 10:24:58;;;;;;;5.80;5.20;;;;;;;;;;6295668;22;20168;-81
2023/11/29 10:27:27;;;;;;;5.35;4.80;;;;;;;;;;6295094;22;20235;-80
2023/11/29 10:29:54;;;;;;;4.40;4.05;;;;;;;;;;6292369;22;20200;-80
2023/11/29 10:32:23;;;;;;;8.38;5.20;;;;;;;;;;6295704;22;20176;-81
2023/11/29 10:34:51;;;;;;;5.50;5.00;;;;;;;;;;6293441;22;20199;-80
2023/11/29 10:37:19;;;;;;;5.53;5.03;;;;;;;;;;6293934;22;20179;-80
2023/11/29 10:39:49;;;;;;;4.97;4.57;;;;;;;;;;6293056;22;20181;-79
2023/11/29 10:42:16;;;;;;;4.60;4.20;;;;;;;;;;6292135;22;20183;-81
2023/11/29 10:44:48;;;;;;;5.50;5.00;;;;;;;;;;6292824;22;20633;-79
2023/11/29 10:47:20;;;;;;;4.93;4.15;;;;;;;;;;6291042;22;20692;-81
2023/11/29 10:49:51;;;;;;;3.97;3.67;;;;;;;;;;6292975;22;20167;-81
2023/11/29 10:52:18;;;;;;;5.07;4.57;;;;;;;;;;6290342;22;20163;-81
2023/11/29 10:54:47;;;;;;;5.80;5.20;;;;;;;;;;6292014;22;20176;-80
2023/11/29 10:57:15;;;;;;;5.70;5.03;;;;;;;;;;6288601;22;20180;-80
2023/11/29 10:59:50;;;;;;;5.80;5.20;;;;;;;;;;6292777;22;20176;-80
2023/11/29 11:02:18;;;;;;;5.00;4.60;;;;;;;;;;6292098;22;20167;-80
2023/11/29 11:04:54;;;;;;;4.85;4.45;;;;;;;;;;6293232;22;20210;-79
2023/11/29 11:07:41;;;;;;;4.65;4.15;;;;;;;;;;6287812;22;20687;-80
2023/11/29 11:10:11;;;;;;;4.93;4.43;;;;;;;;;;6288043;22;20183;-80
2023/11/29 11:12:40;;;;;;;3.90;3.60;;;;;;;;;;6290874;22;20176;-81
2023/11/29 11:15:15;;;;;;;4.68;4.15;;;;;;;;;;6289957;22;20172;-79
2023/11/29 11:17:43;;;;;;;4.35;3.95;;;;;;;;;;6289744;22;20278;-80
2023/11/29 11:20:12;;;;;;;4.72;4.25;;;;;;;;;;6286778;22;20625;-81
2023/11/29 11:22:42;;;;;;;6.60;4.88;;;;;;;;;;6290857;22;20184;-80
2023/11/29 11:25:12;;;;;;;5.20;4.70;;;;;;;;;;6289219;22;20180;-80
2023/11/29 11:27:43;;;;;;;5.03;4.47;;;;;;;;;;6289184;22;20187;-79
2023/11/29 11:30:43;;;;;;;5.10;4.07;;;;;;;;;;6290707;22;20594;-80
2023/11/29 11:33:12;;;;;;;4.93;4.43;;;;;;;;;;6290865;22;20511;-80
2023/11/29 11:35:40;;;;;;;4.03;3.65;;;;;;;;;;6287547;22;20180;-81
2023/11/29 11:38:10;;;;;;;7.35;4.97;;;;;;;;;;6286408;22;20192;-81
2023/11/29 11:40:40;;;;;;;7.13;5.75;;;;;;;;;;6289219;22;20157;-79
2023/11/29 11:43:09;;;;;;;4.90;4.40;;;;;;;;;;6287803;22;20211;-80
2023/11/29 11:45:38;;;;;;;6.03;4.78;;;;;;;;;;6288320;22;20645;-79
2023/11/29 11:48:07;;;;;;;4.20;3.78;;;;;;;;;;6284940;22;20275;-81
2023/11/29 11:50:35;;;;;;;5.05;4.03;;;;;;;;;;6290805;22;20172;-82
2023/11/29 11:53:04;;;;;;;4.30;3.90;;;;;;;;;;6286614;22;20586;-81
2023/11/29 11:55:32;;;;;;;4.82;4.07;;;;;;;;;;6287117;22;20172;-81
2023/11/29 11:58:02;;;;;;;5.80;4.18;;;;;;;;;;6289471;22;20680;-81
2023/11/29 12:00:30;;;;;;;4.38;3.78;;;;;;;;;;6289076;22;20163;-81
2023/11/29 12:03:00;;;;;;;4.45;4.05;;;;;;;;;;6288545;22;20204;-80
2023/11/29 12:05:29;;;;;;;3.28;2.90;;;;;;;;;;6289620;22;20673;-79
2023/11/29 12:07:57;;;;;;;3.95;3.55;;;;;;;;;;6290080;22;20231;-79
2023/11/29 12:10:24;;;;;;;2.65;2.45;;;;;;;;;;6287566;22;20208;-80
2023/11/29 12:12:52;;;;;;;2.75;2.55;;;;;;;;;;6287196;22;20208;-81
2023/11/29 12:15:20;;;;;;;2.95;2.63;;;;;;;;;;6289005;22;20183;-80
2023/11/29 12:17:48;;;;;;;2.70;2.50;;;;;;;;;;6287557;22;20196;-80
2023/11/29 12:20:17;;;;;;;3.47;3.10;;;;;;;;;;6287228;22;20203;-80
2023/11/29 12:22:47;;;;;;;3.10;2.80;;;;;;;;;;6290823;22;20223;-80
2023/11/29 12:25:16;;;;;;;2.92;2.60;;;;;;;;;;6286841;22;20633;-81
2023/11/29 12:27:50;;;;;;;3.45;3.15;;;;;;;;;;6288057;22;20302;-80
2023/11/29 12:30:19;;;;;;;2.80;2.60;;;;;;;;;;6289119;22;20165;-80
2023/11/29 12:32:46;;;;;;;2.97;2.60;;;;;;;;;;6287685;22;20176;-80
2023/11/29 12:35:16;;;;;;;2.70;2.33;;;;;;;;;;6286303;22;20735;-80
2023/11/29 12:37:46;;;;;;;2.10;1.90;;;;;;;;;;6286994;22;20706;-80
2023/11/29 12:40:16;;;;;;;2.75;2.55;;;;;;;;;;6287678;22;20169;-79
2023/11/29 12:42:45;;;;;;;1.77;1.67;;;;;;;;;;6285773;22;20179;-80
2023/11/29 12:45:13;;;;;;;2.15;2.05;;;;;;;;;;6287284;22;20179;-80
2023/11/29 12:47:41;;;;;;;3.85;3.47;;;;;;;;;;6283674;22;20247;-81
2023/11/29 12:50:08;;;;;;;2.30;2.10;;;;;;;;;;6286233;22;20176;-80
2023/11/29 12:52:37;;;;;;;2.42;2.22;;;;;;;;;;6287691;22;20622;-81
2023/11/29 12:55:06;;;;;;;2.70;2.20;;;;;;;;;;6287799;22;20180;-80
2023/11/29 12:57:33;;;;;;;2.28;2.08;;;;;;;;;;6287084;22;20200;-79
2023/11/29 13:00:00;;;;;;;1.80;1.70;;;;;;;;;;6287643;22;20211;-80
2023/11/29 13:02:28;;;;;;;1.50;1.38;;;;;;;;;;6289449;22;20183;-81
2023/11/29 13:04:55;;;;;;;2.97;2.10;;;;;;;;;;6289811;22;20204;-81
2023/11/29 13:07:23;;;;;;;2.70;2.50;;;;;;;;;;6287693;22;20210;-80
2023/11/29 13:09:52;;;;;;;2.38;1.75;;;;;;;;;;6286597;22;20701;-81
2023/11/29 13:12:19;;;;;;;2.90;2.35;;;;;;;;;;6288097;22;20175;-81
2023/11/29 13:14:47;;;;;;;2.30;1.90;;;;;;;;;;6287751;22;20207;-80
2023/11/29 13:17:14;;;;;;;2.20;2.00;;;;;;;;;;6287695;22;20215;-81
2023/11/29 13:19:42;;;;;;;3.35;2.67;;;;;;;;;;6288872;22;20231;-80
2023/11/29 13:22:10;;;;;;;2.28;2.08;;;;;;;;;;6285639;22;20177;-80
2023/11/29 13:24:38;;;;;;;2.17;2.05;;;;;;;;;;6286950;22;20708;-80
2023/11/29 13:27:07;;;;;;;2.83;2.58;;;;;;;;;;6287582;22;20191;-82
2023/11/29 13:29:34;;;;;;;2.17;1.98;;;;;;;;;;6287641;22;20342;-81
2023/11/29 13:32:03;;;;;;;2.13;1.92;;;;;;;;;;6285576;22;20211;-81
2023/11/29 13:34:32;;;;;;;3.50;2.88;;;;;;;;;;6287693;22;20660;-80
2023/11/29 13:37:00;;;;;;;2.28;2.08;;;;;;;;;;6286948;22;20704;-82
2023/11/29 13:39:29;;;;;;;1.67;1.58;;;;;;;;;;6290758;22;20192;-80
2023/11/29 13:41:57;;;;;;;3.38;2.50;;;;;;;;;;6286067;22;20183;-82
2023/11/29 13:44:27;;;;;;;2.20;2.10;;;;;;;;;;6287708;22;20215;-80
2023/11/29 13:46:55;;;;;;;2.65;2.45;;;;;;;;;;6286815;22;20172;-80
2023/11/29 13:49:22;;;;;;;2.00;1.80;;;;;;;;;;6286532;22;20240;-80
2023/11/29 13:51:50;;;;;;;3.72;2.47;;;;;;;;;;6288019;22;20176;-79
2023/11/29 13:54:18;;;;;;;3.65;3.35;;;;;;;;;;6288237;22;20182;-80
2023/11/29 13:56:46;;;;;;;4.07;3.65;;;;;;;;;;6286589;22;20182;-80
2023/11/29 13:59:15;;;;;;;3.47;2.72;;;;;;;;;;6288145;22;20250;-81
2023/11/29 14:01:44;;;;;;;3.85;2.20;;;;;;;;;;6287700;22;20643;-81
2023/11/29 14:04:12;;;;;;;1.83;1.70;;;;;;;;;;6286920;22;20183;-81
2023/11/29 14:06:39;;;;;;;3.70;2.75;;;;;;;;;;6285801;22;20211;-81
2023/11/29 14:09:08;;;;;;;4.35;2.72;;;;;;;;;;6287363;22;20651;-81
2023/11/29 14:11:38;;;;;;;3.33;2.95;;;;;;;;;;6286421;22;20214;-81
2023/11/29 14:14:05;;;;;;;2.90;1.92;;;;;;;;;;6287254;22;20176;-80
2023/11/29 14:16:34;;;;;;;4.38;3.08;;;;;;;;;;6288551;22;20176;-81
2023/11/29 14:19:03;;;;;;;5.65;3.20;;;;;;;;;;6285960;22;20850;-80
2023/11/29 14:21:31;;;;;;;3.60;3.08;;;;;;;;;;6286449;22;20487;-80
2023/11/29 14:23:58;;;;;;;6.25;3.40;;;;;;;;;;6285593;22;20180;-80
2023/11/29 14:26:26;;;;;;;4.97;3.63;;;;;;;;;;6289006;22;20211;-81
2023/11/29 14:28:53;;;;;;;5.00;2.47;;;;;;;;;;6287832;22;20652;-80
2023/11/29 14:31:21;;;;;;;3.15;2.40;;;;;;;;;;6286505;22;20211;-79
2023/11/29 14:33:47;;;;;;;2.47;2.28;;;;;;;;;;6285950;22;20215;-79
2023/11/29 14:36:16;;;;;;;2.40;2.20;;;;;;;;;;6286855;22;20176;-79
2023/11/29 14:38:43;;;;;;;3.60;2.83;;;;;;;;;;6288326;22;20220;-80
2023/11/29 14:41:11;;;;;;;7.40;2.78;;;;;;;;;;6288742;22;20177;-79
2023/11/29 14:43:39;;;;;;;4.82;3.53;;;;;;;;;;6287409;22;20183;-78
2023/11/29 14:46:07;;;;;;;2.92;2.33;;;;;;;;;;6289593;22;20204;-79
2023/11/29 14:48:36;;;;;;;4.78;3.88;;;;;;;;;;6289865;22;20218;-81